createdAt,value
2019-02-08T00:01:39.195Z,60.50
2019-02-08T00:04:08.696Z,51.90
2019-02-08T00:06:38.105Z,45.87
2019-02-08T00:09:10.199Z,64.03
2019-02-08T00:11:39.671Z,66.03
2019-02-08T00:14:09.775Z,67.43
2019-02-08T00:16:39.213Z,45.23
2019-02-08T00:19:08.650Z,54.40
2019-02-08T00:21:38.031Z,47.03
2019-02-08T00:24:07.505Z,60.57
2019-02-08T00:26:36.964Z,58.80
2019-02-08T00:29:06.721Z,68.47
2019-02-08T00:31:36.268Z,41.00
2019-02-08T00:34:05.931Z,41.00
2019-02-08T00:36:35.393Z,46.07
2019-02-08T00:39:09.931Z,42.30
2019-02-08T00:41:39.309Z,34.07
2019-02-08T00:44:09.106Z,65.27
2019-02-08T00:46:38.514Z,61.17
2019-02-08T00:49:08.075Z,56.57
2019-02-08T00:51:37.466Z,60.33
2019-02-08T00:54:07.143Z,41.43
2019-02-08T00:56:36.478Z,51.77
2019-02-08T00:59:06.527Z,61.20
2019-02-08T01:01:36.027Z,53.90
2019-02-08T01:04:06.131Z,62.67
2019-02-08T01:06:35.739Z,62.07
2019-02-08T01:09:09.348Z,59.10
2019-02-08T01:11:38.918Z,69.40
2019-02-08T01:14:08.677Z,54.60
2019-02-08T01:16:38.085Z,61.83
2019-02-08T01:19:07.802Z,53.20
2019-02-08T01:21:37.140Z,55.67
2019-02-08T01:24:06.690Z,61.20
2019-02-08T01:26:36.144Z,45.03
2019-02-08T01:29:05.988Z,44.87
2019-02-08T01:31:35.368Z,51.37
2019-02-08T01:34:05.364Z,53.80
2019-02-08T01:36:34.741Z,57.83
2019-02-08T01:39:06.822Z,38.33
2019-02-08T01:41:36.349Z,48.40
2019-02-08T01:44:06.247Z,52.33
2019-02-08T01:46:35.730Z,54.37
2019-02-08T01:49:05.481Z,60.83
2019-02-08T01:51:35.082Z,54.53
2019-02-08T01:54:04.690Z,47.40
2019-02-08T01:56:34.101Z,55.33
2019-02-08T01:59:03.560Z,47.87
2019-02-08T02:01:33.049Z,39.53
2019-02-08T02:04:02.447Z,62.73
2019-02-08T02:06:31.866Z,59.13
2019-02-08T02:09:01.327Z,58.37
2019-02-08T02:11:30.762Z,61.17
2019-02-08T02:14:00.167Z,53.80
2019-02-08T02:16:29.577Z,53.13
2019-02-08T02:18:58.919Z,57.83
2019-02-08T02:21:28.331Z,63.53
2019-02-08T02:23:57.774Z,52.43
2019-02-08T02:26:27.241Z,62.03
2019-02-08T02:28:56.679Z,52.40
2019-02-08T02:31:26.106Z,59.70
2019-02-08T02:33:55.451Z,56.10
2019-02-08T02:36:24.827Z,55.43
2019-02-08T02:38:54.576Z,52.07
2019-02-08T02:41:24.068Z,50.90
2019-02-08T02:43:53.542Z,46.87
2019-02-08T02:46:22.962Z,49.43
2019-02-08T02:48:52.378Z,49.13
2019-02-08T02:51:21.932Z,61.70
2019-02-08T02:53:51.347Z,47.63
2019-02-08T02:56:20.731Z,56.57
2019-02-08T02:58:50.085Z,45.40
2019-02-08T03:01:19.558Z,49.43
2019-02-08T03:03:48.943Z,47.53
2019-02-08T03:06:18.541Z,48.67
2019-02-08T03:08:47.884Z,72.03
2019-02-08T03:11:17.294Z,55.80
2019-02-08T03:13:46.730Z,73.23
2019-02-08T03:16:16.146Z,74.23
2019-02-08T03:18:45.485Z,71.10
2019-02-08T03:21:14.997Z,66.57
2019-02-08T03:23:44.587Z,56.30
2019-02-08T03:26:14.054Z,66.23
2019-02-08T03:28:43.461Z,38.97
2019-02-08T03:31:12.803Z,46.40
2019-02-08T03:33:42.198Z,80.40
2019-02-08T03:36:11.686Z,51.50
2019-02-08T03:38:41.053Z,77.03
2019-02-08T03:41:10.486Z,50.13
2019-02-08T03:43:39.807Z,61.87
2019-02-08T03:46:09.677Z,71.33
2019-02-08T03:48:39.081Z,64.40
2019-02-08T03:51:08.426Z,75.00
2019-02-08T03:53:37.896Z,61.17
2019-02-08T03:56:07.233Z,35.90
2019-02-08T03:58:36.683Z,51.67
2019-02-08T04:01:07.426Z,66.10
2019-02-08T04:03:37.162Z,67.77
2019-02-08T04:06:07.014Z,48.37
2019-02-08T04:08:36.522Z,61.57
2019-02-08T04:11:06.141Z,49.53
2019-02-08T04:13:35.662Z,61.00
2019-02-08T04:16:05.789Z,53.23
2019-02-08T04:18:35.229Z,38.73
2019-02-08T04:21:05.343Z,51.57
2019-02-08T04:23:34.792Z,73.53
2019-02-08T04:26:04.215Z,72.83
2019-02-08T04:28:33.856Z,62.03
2019-02-08T04:31:03.252Z,65.83
2019-02-08T04:33:32.829Z,67.80
2019-02-08T04:36:02.223Z,78.50
2019-02-08T04:38:31.709Z,74.13
2019-02-08T04:41:01.135Z,68.53
2019-02-08T04:43:30.521Z,74.17
2019-02-08T04:45:59.929Z,78.13
2019-02-08T04:48:29.443Z,76.97
2019-02-08T04:50:58.819Z,79.57
2019-02-08T04:53:28.195Z,71.83
2019-02-08T04:55:57.627Z,62.20
2019-02-08T04:58:35.181Z,75.80
2019-02-08T05:00:58.302Z,64.67
2019-02-08T05:03:27.732Z,58.17
2019-02-08T05:05:57.127Z,81.87
2019-02-08T05:08:26.530Z,84.27
2019-02-08T05:10:55.982Z,72.23
2019-02-08T05:13:25.629Z,71.37
2019-02-08T05:15:54.937Z,61.93
2019-02-08T05:18:24.381Z,73.17
2019-02-08T05:20:53.789Z,72.43
2019-02-08T05:23:23.220Z,81.43
2019-02-08T05:25:52.581Z,51.03
2019-02-08T05:28:22.006Z,72.73
2019-02-08T05:30:51.558Z,63.87
2019-02-08T05:33:20.967Z,88.17
2019-02-08T05:35:50.384Z,65.93
2019-02-08T05:38:19.952Z,77.40
2019-02-08T05:40:49.272Z,94.60
2019-02-08T05:43:18.726Z,80.83
2019-02-08T05:45:48.070Z,68.97
2019-02-08T05:48:17.528Z,85.20
2019-02-08T05:50:46.884Z,81.17
2019-02-08T05:53:16.367Z,87.60
2019-02-08T05:55:45.687Z,81.87
2019-02-08T05:58:15.080Z,87.60
2019-02-08T06:00:58.140Z,86.77
2019-02-08T06:03:28.003Z,64.33
2019-02-08T06:05:57.474Z,92.53
2019-02-08T06:08:26.812Z,83.37
2019-02-08T06:10:56.382Z,84.20
2019-02-08T06:13:25.735Z,66.93
2019-02-08T06:15:55.124Z,82.03
2019-02-08T06:18:24.704Z,57.47
2019-02-08T06:20:54.153Z,76.80
2019-02-08T06:23:23.583Z,73.00
2019-02-08T06:25:53.345Z,72.23
2019-02-08T06:28:22.850Z,68.70
2019-02-08T06:30:52.299Z,69.97
2019-02-08T06:33:21.878Z,83.07
2019-02-08T06:35:51.267Z,74.23
2019-02-08T06:38:20.691Z,75.40
2019-02-08T06:40:50.112Z,62.87
2019-02-08T06:43:19.665Z,81.33
2019-02-08T06:45:49.077Z,81.07
2019-02-08T06:48:18.670Z,57.73
2019-02-08T06:50:48.132Z,82.40
2019-02-08T06:53:17.479Z,79.60
2019-02-08T06:55:46.934Z,55.93
2019-02-08T06:58:39.287Z,72.87
2019-02-08T07:01:46.159Z,72.10
2019-02-08T07:04:39.534Z,64.43
2019-02-08T07:07:27.859Z,74.73
2019-02-08T07:10:31.524Z,61.40
2019-02-08T07:13:11.447Z,61.03
2019-02-08T07:15:53.010Z,68.63
2019-02-08T07:18:37.095Z,65.10
2019-02-08T07:21:21.037Z,45.37
2019-02-08T07:24:14.711Z,72.37
2019-02-08T07:27:09.254Z,68.60
2019-02-08T07:29:53.922Z,69.13
2019-02-08T07:32:48.090Z,79.57
2019-02-08T07:35:37.290Z,53.20
2019-02-08T07:38:25.841Z,54.40
2019-02-08T07:41:29.587Z,52.30
2019-02-08T07:44:18.582Z,71.47
2019-02-08T07:47:03.000Z,53.00
2019-02-08T07:49:55.377Z,57.00
2019-02-08T07:52:49.890Z,60.13
2019-02-08T07:55:51.354Z,65.97
2019-02-08T07:58:47.086Z,63.90
2019-02-08T08:01:35.601Z,51.83
2019-02-08T08:04:26.026Z,73.13
2019-02-08T08:07:21.541Z,62.33
2019-02-08T08:10:05.956Z,65.90
2019-02-08T08:12:54.400Z,59.67
2019-02-08T08:16:01.719Z,75.23
2019-02-08T08:18:49.157Z,68.20
2019-02-08T08:21:34.228Z,64.07
2019-02-08T08:24:23.181Z,62.27
2019-02-08T08:27:19.018Z,60.73
2019-02-08T08:30:15.955Z,74.10
2019-02-08T08:33:22.868Z,59.97
2019-02-08T08:36:40.816Z,64.43
2019-02-08T08:40:01.668Z,65.10
2019-02-08T08:43:20.343Z,56.50
2019-02-08T08:46:32.445Z,68.07
2019-02-08T08:49:37.888Z,49.17
2019-02-08T08:52:24.578Z,60.60
2019-02-08T08:55:31.005Z,44.87
2019-02-08T08:58:40.228Z,64.87
2019-02-08T09:01:52.558Z,54.17
2019-02-08T09:05:08.870Z,53.53
2019-02-08T09:08:11.173Z,52.33
2019-02-08T09:11:39.830Z,41.37
2019-02-08T09:14:52.259Z,62.10
2019-02-08T09:18:04.190Z,58.90
2019-02-08T09:21:17.773Z,59.93
2019-02-08T09:24:12.771Z,59.20
2019-02-08T09:27:20.607Z,54.40
2019-02-08T09:30:46.607Z,56.77
2019-02-08T09:33:50.367Z,46.33
2019-02-08T09:37:07.013Z,62.80
2019-02-08T09:39:57.271Z,47.00
2019-02-08T09:43:26.048Z,51.87
2019-02-08T09:46:41.906Z,34.10
2019-02-08T09:49:56.587Z,53.07
2019-02-08T09:53:11.154Z,45.77
2019-02-08T09:56:16.114Z,59.10
2019-02-08T09:59:41.514Z,56.17
2019-02-08T10:02:50.628Z,54.00
2019-02-08T10:06:01.010Z,60.07
2019-02-08T10:09:25.942Z,54.53
2019-02-08T10:12:49.184Z,63.37
2019-02-08T10:16:14.210Z,54.93
2019-02-08T10:19:33.939Z,57.77
2019-02-08T10:22:46.992Z,45.67
2019-02-08T10:26:05.272Z,54.47
2019-02-08T10:29:10.877Z,48.53
2019-02-08T10:32:23.942Z,56.87
2019-02-08T10:35:49.807Z,36.30
2019-02-08T10:39:12.305Z,36.23
2019-02-08T10:42:50.631Z,50.27
2019-02-08T10:45:58.982Z,48.27
2019-02-08T10:49:04.006Z,50.83
2019-02-08T10:52:00.169Z,47.47
2019-02-08T10:55:01.766Z,39.33
2019-02-08T10:58:08.493Z,43.03
2019-02-08T11:01:13.110Z,36.47
2019-02-08T11:04:35.301Z,44.87
2019-02-08T11:08:00.868Z,50.17
2019-02-08T11:11:19.758Z,36.17
2019-02-08T11:14:48.676Z,52.83
2019-02-08T11:18:14.390Z,43.23
2019-02-08T11:20:43.785Z,36.37
2019-02-08T11:23:13.262Z,47.33
2019-02-08T11:25:42.590Z,35.40
2019-02-08T11:28:12.025Z,29.63
2019-02-08T11:30:41.454Z,43.80
2019-02-08T11:33:10.793Z,44.07
2019-02-08T11:35:40.245Z,37.67
2019-02-08T11:38:09.599Z,29.90
2019-02-08T11:40:39.254Z,34.10
2019-02-08T11:43:08.603Z,38.70
2019-02-08T11:45:38.322Z,59.70
2019-02-08T11:48:08.034Z,42.97
2019-02-08T11:50:37.506Z,44.83
2019-02-08T11:53:06.900Z,37.37
2019-02-08T11:55:36.350Z,40.23
2019-02-08T11:58:06.163Z,41.30
2019-02-08T12:00:38.725Z,45.03
2019-02-08T12:03:08.374Z,44.20
2019-02-08T12:05:38.190Z,51.43
2019-02-08T12:08:08.383Z,49.73
2019-02-08T12:10:37.766Z,44.37
2019-02-08T12:13:07.395Z,43.93
2019-02-08T12:15:36.811Z,30.37
2019-02-08T12:18:06.321Z,38.40
2019-02-08T12:20:35.710Z,33.77
2019-02-08T12:23:05.330Z,44.33
2019-02-08T12:25:34.798Z,32.13
2019-02-08T12:28:04.645Z,37.27
2019-02-08T12:30:36.641Z,31.20
2019-02-08T12:33:06.862Z,38.83
2019-02-08T12:35:36.434Z,27.57
2019-02-08T12:38:05.799Z,35.30
2019-02-08T12:40:35.460Z,30.83
2019-02-08T12:43:05.299Z,35.67
2019-02-08T12:45:34.860Z,43.73
2019-02-08T12:48:04.530Z,35.57
2019-02-08T12:50:33.934Z,26.90
2019-02-08T12:53:03.421Z,33.23
2019-02-08T12:55:32.946Z,33.40
2019-02-08T12:58:02.347Z,26.10
2019-02-08T13:00:31.787Z,38.40
2019-02-08T13:03:01.169Z,41.53
2019-02-08T13:05:30.677Z,33.23
2019-02-08T13:08:00.360Z,28.13
2019-02-08T13:10:30.175Z,31.30
2019-02-08T13:12:59.617Z,32.53
2019-02-08T13:15:29.282Z,35.03
2019-02-08T13:17:58.673Z,35.60
2019-02-08T13:20:28.164Z,37.00
2019-02-08T13:22:57.900Z,37.43
2019-02-08T13:25:27.324Z,35.60
2019-02-08T13:27:56.704Z,32.93
2019-02-08T13:30:28.317Z,25.20
2019-02-08T13:32:58.102Z,32.20
2019-02-08T13:35:28.283Z,33.27
2019-02-08T13:37:57.802Z,33.80
2019-02-08T13:40:27.214Z,31.00
2019-02-08T13:42:56.666Z,35.87
2019-02-08T13:45:26.309Z,38.87
2019-02-08T13:47:55.987Z,47.60
2019-02-08T13:50:26.196Z,36.00
2019-02-08T13:52:55.547Z,29.73
2019-02-08T13:55:26.211Z,35.83
2019-02-08T13:57:55.626Z,33.73
2019-02-08T14:00:27.917Z,37.43
2019-02-08T14:02:57.277Z,35.43
2019-02-08T14:05:26.623Z,41.20
2019-02-08T14:07:56.068Z,41.03
2019-02-08T14:10:25.471Z,32.63
2019-02-08T14:12:55.019Z,40.67
2019-02-08T14:15:24.964Z,39.47
2019-02-08T14:17:54.423Z,36.17
2019-02-08T14:20:24.507Z,27.10
2019-02-08T14:22:54.330Z,26.33
2019-02-08T14:25:23.917Z,28.83
2019-02-08T14:27:53.593Z,45.17
2019-02-08T14:30:31.998Z,45.60
2019-02-08T14:33:01.467Z,48.50
2019-02-08T14:35:30.929Z,41.27
2019-02-08T14:38:01.522Z,39.73
2019-02-08T14:40:31.062Z,42.53
2019-02-08T14:43:00.522Z,32.20
2019-02-08T14:45:30.068Z,43.87
2019-02-08T14:47:59.519Z,42.93
2019-02-08T14:50:29.134Z,48.83
2019-02-08T14:52:58.667Z,40.40
2019-02-08T14:55:28.139Z,47.40
2019-02-08T14:57:57.975Z,41.53
2019-02-08T15:00:27.314Z,46.43
2019-02-08T15:02:56.765Z,35.73
2019-02-08T15:05:26.256Z,39.50
2019-02-08T15:07:57.535Z,40.20
2019-02-08T15:10:32.165Z,40.20
2019-02-08T15:13:01.912Z,54.13
2019-02-08T15:15:31.506Z,53.90
2019-02-08T15:18:00.883Z,48.70
2019-02-08T15:20:38.239Z,48.03
2019-02-08T15:23:07.671Z,39.67
2019-02-08T15:25:37.110Z,52.37
2019-02-08T15:28:06.765Z,44.40
2019-02-08T15:30:36.888Z,48.40
2019-02-08T15:33:06.745Z,43.77
2019-02-08T15:35:36.513Z,52.13
2019-02-08T15:38:06.195Z,50.60
2019-02-08T15:40:41.410Z,59.70
2019-02-08T15:43:11.993Z,48.17
2019-02-08T15:45:42.538Z,55.87
2019-02-08T15:48:12.011Z,53.60
2019-02-08T15:50:41.630Z,60.67
2019-02-08T15:53:11.042Z,55.17
2019-02-08T15:55:42.022Z,58.67
2019-02-08T15:58:11.481Z,55.87
2019-02-08T16:00:41.373Z,53.47
2019-02-08T16:03:11.858Z,59.63
2019-02-08T16:05:41.631Z,47.53
2019-02-08T16:08:11.097Z,63.17
2019-02-08T16:10:40.522Z,58.47
2019-02-08T16:13:09.866Z,73.37
2019-02-08T16:15:39.325Z,70.57
2019-02-08T16:18:08.933Z,67.07
2019-02-08T16:20:38.345Z,64.13
2019-02-08T16:23:07.891Z,49.40
2019-02-08T16:25:37.410Z,62.03
2019-02-08T16:28:06.957Z,58.47
2019-02-08T16:30:36.891Z,65.20
2019-02-08T16:33:07.343Z,60.67
2019-02-08T16:35:36.901Z,51.73
2019-02-08T16:38:06.841Z,66.93
2019-02-08T16:40:36.268Z,52.90
2019-02-08T16:43:06.397Z,81.40
2019-02-08T16:45:36.290Z,70.27
2019-02-08T16:48:08.073Z,56.97
2019-02-08T16:50:37.435Z,63.40
2019-02-08T16:53:08.579Z,76.50
2019-02-08T16:55:38.051Z,59.50
2019-02-08T16:58:08.191Z,55.57
2019-02-08T17:00:38.440Z,44.43
2019-02-08T17:03:10.306Z,64.87
2019-02-08T17:05:40.087Z,34.73
2019-02-08T17:08:09.838Z,62.80
2019-02-08T17:10:39.223Z,48.80
2019-02-08T17:13:08.668Z,43.93
2019-02-08T17:15:38.412Z,64.50
2019-02-08T17:18:08.294Z,62.77
2019-02-08T17:20:40.170Z,53.90
2019-02-08T17:23:09.974Z,50.47
2019-02-08T17:25:39.460Z,44.87
2019-02-08T17:28:10.488Z,57.93
2019-02-08T17:30:39.831Z,57.33
2019-02-08T17:33:10.450Z,53.80
2019-02-08T17:35:40.053Z,59.70
2019-02-08T17:38:09.777Z,62.17
2019-02-08T17:40:41.582Z,60.63
2019-02-08T17:43:10.943Z,67.13
2019-02-08T17:45:40.606Z,69.97
2019-02-08T17:48:12.649Z,63.77
2019-02-08T17:50:42.082Z,68.37
2019-02-08T17:53:11.481Z,58.83
2019-02-08T17:55:41.452Z,65.97
2019-02-08T17:58:10.838Z,72.43
2019-02-08T18:00:47.393Z,72.23
2019-02-08T18:03:16.911Z,102.07
2019-02-08T18:05:46.438Z,83.47
2019-02-08T18:08:17.071Z,81.07
2019-02-08T18:10:46.589Z,80.90
2019-02-08T18:13:17.457Z,94.40
2019-02-08T18:15:46.838Z,79.57
2019-02-08T18:18:18.382Z,89.67
2019-02-08T18:20:49.975Z,76.90
2019-02-08T18:23:19.341Z,79.70
2019-02-08T18:25:48.685Z,70.57
2019-02-08T18:28:18.294Z,71.37
2019-02-08T18:30:47.909Z,76.57
2019-02-08T18:33:17.455Z,71.40
2019-02-08T18:35:46.963Z,85.00
2019-02-08T18:38:16.614Z,88.53
2019-02-08T18:40:45.981Z,90.03
2019-02-08T18:43:15.493Z,90.10
2019-02-08T18:45:44.817Z,95.40
2019-02-08T18:48:14.379Z,89.67
2019-02-08T18:50:46.761Z,86.57
2019-02-08T18:53:16.799Z,87.73
2019-02-08T18:55:46.114Z,96.87
2019-02-08T18:58:19.171Z,94.97
2019-02-08T19:00:48.487Z,89.97
2019-02-08T19:03:17.999Z,96.10
2019-02-08T19:05:47.379Z,89.50
2019-02-08T19:08:16.707Z,84.67
2019-02-08T19:10:46.167Z,85.40
2019-02-08T19:13:15.742Z,85.13
2019-02-08T19:15:45.154Z,94.67
2019-02-08T19:18:14.814Z,75.10
2019-02-08T19:20:44.307Z,82.27
2019-02-08T19:23:13.808Z,84.77
2019-02-08T19:25:44.274Z,76.50
2019-02-08T19:28:14.783Z,83.37
2019-02-08T19:30:45.177Z,74.03
2019-02-08T19:33:14.624Z,84.87
2019-02-08T19:35:44.158Z,80.10
2019-02-08T19:38:14.998Z,78.13
2019-02-08T19:40:45.796Z,73.67
2019-02-08T19:43:15.293Z,84.17
2019-02-08T19:45:47.495Z,70.83
2019-02-08T19:48:17.056Z,78.83
2019-02-08T19:50:47.319Z,77.63
2019-02-08T19:53:16.880Z,69.83
2019-02-08T19:55:46.435Z,59.13
2019-02-08T19:58:16.019Z,74.90
2019-02-08T20:00:45.457Z,82.13
2019-02-08T20:03:15.076Z,80.43
2019-02-08T20:05:44.550Z,86.90
2019-02-08T20:08:15.052Z,69.43
2019-02-08T20:10:46.682Z,69.67
2019-02-08T20:13:16.269Z,70.67
2019-02-08T20:15:46.087Z,68.57
2019-02-08T20:18:15.622Z,79.47
2019-02-08T20:20:45.238Z,75.07
2019-02-08T20:23:14.670Z,77.90
2019-02-08T20:25:44.143Z,80.63
2019-02-08T20:28:13.630Z,85.53
2019-02-08T20:30:43.071Z,83.03
2019-02-08T20:33:13.290Z,78.53
2019-02-08T20:35:42.681Z,71.23
2019-02-08T20:38:12.182Z,85.10
2019-02-08T20:40:44.284Z,83.33
2019-02-08T20:43:13.695Z,62.57
2019-02-08T20:45:43.072Z,67.00
2019-02-08T20:48:18.050Z,69.87
2019-02-08T20:50:47.964Z,75.90
2019-02-08T20:53:18.970Z,85.20
2019-02-08T20:55:48.578Z,54.80
2019-02-08T20:58:18.158Z,74.10
2019-02-08T21:00:50.477Z,67.97
2019-02-08T21:03:20.704Z,87.33
2019-02-08T21:05:50.644Z,73.93
2019-02-08T21:08:21.304Z,74.40
2019-02-08T21:10:50.761Z,71.57
2019-02-08T21:13:20.207Z,93.03
2019-02-08T21:15:49.683Z,75.53
2019-02-08T21:18:19.098Z,64.50
2019-02-08T21:20:49.473Z,66.03
2019-02-08T21:23:19.190Z,72.23
2019-02-08T21:25:52.102Z,66.80
2019-02-08T21:28:19.808Z,72.77
2019-02-08T21:30:49.179Z,79.50
2019-02-08T21:33:18.767Z,86.93
2019-02-08T21:35:49.542Z,68.97
2019-02-08T21:38:19.201Z,76.60
2019-02-08T21:40:48.527Z,66.77
2019-02-08T21:43:17.999Z,49.63
2019-02-08T21:45:47.477Z,79.60
2019-02-08T21:50:52.227Z,69.60
2019-02-08T21:53:21.653Z,79.53
2019-02-08T21:55:51.235Z,63.23
2019-02-08T21:58:20.765Z,82.47
2019-02-08T22:00:50.078Z,83.87
2019-02-08T22:03:19.532Z,94.17
2019-02-08T22:06:01.233Z,98.83
2019-02-08T22:08:30.604Z,87.87
2019-02-08T22:10:59.974Z,95.93
2019-02-08T22:13:29.326Z,80.23
2019-02-08T22:15:58.714Z,110.03
2019-02-08T22:18:28.136Z,75.80
2019-02-08T22:20:57.541Z,81.33
2019-02-08T22:23:26.892Z,90.90
2019-02-08T22:25:56.354Z,87.07
2019-02-08T22:28:25.834Z,101.20
2019-02-08T22:30:55.299Z,98.13
2019-02-08T22:33:24.685Z,97.03
2019-02-08T22:35:54.142Z,93.10
2019-02-08T22:38:23.549Z,101.70
2019-02-08T22:40:53.066Z,91.57
2019-02-08T22:43:22.408Z,75.97
2019-02-08T22:45:51.881Z,65.00
2019-02-08T22:48:21.194Z,98.43
2019-02-08T22:50:50.602Z,104.97
2019-02-08T22:53:19.945Z,89.53
2019-02-08T22:55:49.310Z,92.30
2019-02-08T22:58:18.775Z,99.47
2019-02-08T23:01:15.513Z,104.77
2019-02-08T23:03:44.854Z,95.07
2019-02-08T23:06:14.306Z,100.83
2019-02-08T23:08:43.802Z,89.53
2019-02-08T23:11:13.132Z,115.90
2019-02-08T23:13:42.558Z,100.73
2019-02-08T23:16:12.095Z,105.93
2019-02-08T23:18:41.529Z,107.03
2019-02-08T23:21:11.102Z,84.77
2019-02-08T23:23:40.533Z,89.37
2019-02-08T23:26:10.119Z,120.93
2019-02-08T23:28:39.546Z,97.63
2019-02-08T23:31:09.057Z,95.33
2019-02-08T23:33:38.554Z,107.97
2019-02-08T23:36:07.930Z,100.87
2019-02-08T23:38:37.374Z,91.67
2019-02-08T23:41:06.670Z,111.20
2019-02-08T23:43:36.305Z,110.50
2019-02-08T23:46:05.923Z,104.33
2019-02-08T23:48:35.314Z,107.60
2019-02-08T23:51:04.922Z,106.40
2019-02-08T23:53:34.323Z,113.40
2019-02-08T23:56:03.742Z,109.80
2019-02-08T23:58:33.194Z,100.23
